Time;durP1;ratioP1;P1;durP2;ratioP2;P2;SDS_P1;SDS_P2;PMS_P1;PMS_P2;Temp;Humidity;BMP_temperature;BMP_pressure;BME280_temperature;BME280_humidity;BME280_pressure;Samples;Min_cycle;Max_cycle;Signal;HPM_P1;HPM_P2
2022/10/22 00:00:29;;;;;;;2.13;0.60;;;;;11.00;93835.00;;;;7392135;19;20143;-75
2022/10/22 00:03:03;;;;;;;0.57;0.57;;;;;11.10;93836.00;;;;7394706;19;20500;-74
2022/10/22 00:05:33;;;;;;;2.65;0.80;;;;;11.10;93845.00;;;;7395469;19;20147;-74
2022/10/22 00:08:03;;;;;;;4.43;0.77;;;;;11.20;93838.00;;;;7396187;19;20152;-75
2022/10/22 00:10:37;;;;;;;1.70;0.68;;;;;11.10;93828.00;;;;7391868;19;20191;-74
2022/10/22 00:13:05;;;;;;;0.73;0.60;;;;;11.10;93847.00;;;;7391052;19;20652;-75
2022/10/22 00:15:35;;;;;;;3.33;0.85;;;;;11.20;93844.00;;;;7392792;19;20212;-74
2022/10/22 00:18:08;;;;;;;3.90;0.82;;;;;11.10;93837.00;;;;7390856;19;20165;-75
2022/10/22 00:20:36;;;;;;;1.85;0.88;;;;;11.10;93845.00;;;;7391439;19;20162;-75
2022/10/22 00:23:03;;;;;;;4.78;0.90;;;;;11.10;93849.00;;;;7394153;19;20153;-74
2022/10/22 00:25:40;;;;;;;3.25;0.80;;;;;11.00;93844.00;;;;7393603;19;20151;-74
2022/10/22 00:28:12;;;;;;;2.22;0.98;;;;;11.10;93845.00;;;;7395213;19;20204;-74
2022/10/22 00:30:39;;;;;;;1.20;0.70;;;;;11.00;93840.00;;;;7392418;19;20165;-73
2022/10/22 00:33:13;;;;;;;0.93;0.68;;;;;11.10;93841.00;;;;7392522;19;20149;-74
2022/10/22 00:35:42;;;;;;;1.33;0.75;;;;;11.20;93843.00;;;;7394107;19;20506;-74
2022/10/22 00:38:09;;;;;;;2.17;1.05;;;;;11.10;93836.00;;;;7391713;19;20128;-73
2022/10/22 00:40:50;;;;;;;2.85;0.75;;;;;11.20;93839.00;;;;7392428;19;20141;-74
2022/10/22 00:43:19;;;;;;;1.10;0.52;;;;;11.10;93823.00;;;;7393280;19;20665;-74
2022/10/22 00:45:53;;;;;;;1.58;0.68;;;;;11.10;93817.00;;;;7400356;19;20509;-74
2022/10/22 00:48:30;;;;;;;2.40;0.80;;;;;11.10;93809.00;;;;7399992;19;20137;-75
2022/10/22 00:51:11;;;;;;;1.15;0.73;;;;;11.00;93804.00;;;;7398826;19;20183;-74
2022/10/22 00:53:59;;;;;;;1.02;0.70;;;;;11.10;93804.00;;;;7397332;19;20180;-75
2022/10/22 00:56:33;;;;;;;1.48;0.60;;;;;11.10;93790.00;;;;7397458;19;20145;-75
2022/10/22 00:59:02;;;;;;;2.85;0.98;;;;;11.10;93770.00;;;;7399896;19;20155;-74
2022/10/22 01:01:31;;;;;;;2.92;0.80;;;;;11.10;93766.00;;;;7398716;19;20139;-74
2022/10/22 01:04:05;;;;;;;1.20;0.63;;;;;11.20;93771.00;;;;7398928;19;20153;-76
2022/10/22 01:06:33;;;;;;;2.10;0.75;;;;;11.10;93794.00;;;;7398323;19;20137;-75
2022/10/22 01:09:32;;;;;;;1.05;0.55;;;;;11.10;93779.00;;;;7397430;19;20133;-76
2022/10/22 01:12:27;;;;;;;2.03;0.55;;;;;11.10;93779.00;;;;7394470;19;20159;-76
2022/10/22 01:15:00;;;;;;;1.85;0.60;;;;;11.10;93781.00;;;;7391629;19;20141;-75
2022/10/22 01:18:16;;;;;;;6.07;0.70;;;;;11.10;93777.00;;;;7395362;19;20169;-74
2022/10/22 01:21:09;;;;;;;1.63;0.60;;;;;11.10;93791.00;;;;7385927;19;20149;-75
2022/10/22 01:24:10;;;;;;;1.60;0.70;;;;;11.10;93788.00;;;;7383156;19;20140;-74
2022/10/22 01:27:06;;;;;;;1.85;0.88;;;;;11.20;93796.00;;;;7385442;19;20151;-76
2022/10/22 01:29:49;;;;;;;1.33;0.75;;;;;11.10;93815.00;;;;7401428;19;20132;-75
2022/10/22 01:32:31;;;;;;;3.25;1.00;;;;;11.30;93816.00;;;;7397225;19;20128;-75
2022/10/22 01:35:11;;;;;;;1.02;0.80;;;;;11.30;93815.00;;;;7399116;19;20218;-74
2022/10/22 01:37:49;;;;;;;2.15;0.63;;;;;11.30;93828.00;;;;7399945;19;20129;-74
2022/10/22 01:40:27;;;;;;;3.40;0.70;;;;;11.10;93819.00;;;;7396357;19;20596;-74
2022/10/22 01:42:59;;;;;;;0.77;0.63;;;;;11.20;93821.00;;;;7397870;19;20151;-74
2022/10/22 01:45:45;;;;;;;0.82;0.70;;;;;11.20;93829.00;;;;7400394;19;20135;-74
2022/10/22 01:48:15;;;;;;;5.18;0.77;;;;;11.30;93833.00;;;;7396236;19;20152;-74
2022/10/22 01:51:08;;;;;;;1.75;0.70;;;;;11.30;93827.00;;;;7397145;19;20132;-75
2022/10/22 01:53:58;;;;;;;3.50;1.10;;;;;11.20;93827.00;;;;7397712;19;20156;-74
2022/10/22 01:57:17;;;;;;;2.03;0.85;;;;;11.30;93838.00;;;;7397184;19;20137;-77
2022/10/22 01:59:59;;;;;;;1.85;0.80;;;;;11.30;93824.00;;;;7398136;19;20125;-75
2022/10/22 02:03:05;;;;;;;0.95;0.80;;;;;11.10;93834.00;;;;7395505;19;20141;-76
2022/10/22 02:05:42;;;;;;;1.63;0.60;;;;;11.20;93844.00;;;;7398483;19;20149;-75
2022/10/22 02:08:24;;;;;;;0.90;0.68;;;;;11.30;93847.00;;;;7396968;19;20133;-76
2022/10/22 02:10:56;;;;;;;3.20;0.82;;;;;11.30;93851.00;;;;7398108;19;20196;-75
2022/10/22 02:13:41;;;;;;;0.80;0.63;;;;;11.20;93855.00;;;;7397198;19;20196;-75
2022/10/22 02:16:17;;;;;;;2.60;1.00;;;;;11.30;93857.00;;;;7394778;19;20143;-76
2022/10/22 02:18:55;;;;;;;1.00;0.90;;;;;11.20;93861.00;;;;7394783;19;20208;-76
2022/10/22 02:21:23;;;;;;;1.42;0.65;;;;;11.20;93867.00;;;;7399510;19;20159;-75
2022/10/22 02:23:50;;;;;;;3.13;0.80;;;;;11.20;93849.00;;;;7398245;19;20137;-75
2022/10/22 02:26:38;;;;;;;2.10;0.82;;;;;11.20;93836.00;;;;7394452;19;20140;-75
2022/10/22 02:29:32;;;;;;;1.08;0.95;;;;;11.20;93826.00;;;;7396356;19;20478;-76
2022/10/22 02:32:10;;;;;;;1.10;0.60;;;;;11.20;93805.00;;;;7397166;19;20149;-74
2022/10/22 02:34:38;;;;;;;0.98;0.80;;;;;11.20;93798.00;;;;7395494;19;20496;-74
2022/10/22 02:37:06;;;;;;;7.03;1.08;;;;;11.20;93793.00;;;;7395904;19;20220;-74
2022/10/22 02:39:43;;;;;;;1.55;0.70;;;;;11.10;93795.00;;;;7397442;19;20613;-73
2022/10/22 02:42:11;;;;;;;5.82;1.35;;;;;11.10;93814.00;;;;7395552;19;20484;-75
2022/10/22 02:44:42;;;;;;;0.80;0.60;;;;;11.00;93806.00;;;;7395029;19;20129;-75
2022/10/22 02:47:18;;;;;;;0.82;0.70;;;;;11.20;93803.00;;;;7397670;19;20140;-75
2022/10/22 02:49:45;;;;;;;1.77;0.70;;;;;11.00;93808.00;;;;7397162;19;20218;-75
2022/10/22 02:52:13;;;;;;;3.08;0.70;;;;;11.10;93827.00;;;;7394938;19;20623;-75
2022/10/22 02:54:53;;;;;;;1.10;0.65;;;;;11.00;93817.00;;;;7395536;19;20171;-74
2022/10/22 02:57:21;;;;;;;2.78;0.90;;;;;11.10;93824.00;;;;7396514;19;20155;-74
2022/10/22 02:59:54;;;;;;;2.10;1.20;;;;;11.20;93831.00;;;;7399146;19;20143;-76
2022/10/22 03:02:22;;;;;;;1.92;0.88;;;;;11.00;93833.00;;;;7393465;19;20154;-74
2022/10/22 03:04:49;;;;;;;0.90;0.80;;;;;11.00;93830.00;;;;7395985;19;20158;-75
2022/10/22 03:07:23;;;;;;;2.75;0.90;;;;;11.00;93816.00;;;;7395906;19;20144;-76
2022/10/22 03:09:51;;;;;;;1.65;0.80;;;;;11.00;93827.00;;;;7397101;19;20216;-76
2022/10/22 03:12:21;;;;;;;2.47;0.80;;;;;10.90;93829.00;;;;7393652;19;20204;-76
2022/10/22 03:14:58;;;;;;;2.38;0.98;;;;;11.00;93844.00;;;;7398148;19;20132;-75
2022/10/22 03:17:25;;;;;;;2.72;0.95;;;;;10.90;93849.00;;;;7395701;19;20131;-77
2022/10/22 03:19:53;;;;;;;1.08;0.70;;;;;11.00;93850.00;;;;7397494;19;20128;-76
2022/10/22 03:22:29;;;;;;;1.48;0.80;;;;;11.10;93846.00;;;;7394305;19;20140;-75
2022/10/22 03:25:01;;;;;;;1.75;0.90;;;;;11.00;93839.00;;;;7396089;19;20196;-76
2022/10/22 03:27:37;;;;;;;5.38;0.90;;;;;11.00;93829.00;;;;7395684;19;20619;-75
2022/10/22 03:30:06;;;;;;;0.63;0.52;;;;;11.00;93825.00;;;;7397702;19;20181;-74
2022/10/22 03:32:34;;;;;;;0.85;0.70;;;;;11.00;93821.00;;;;7391997;19;20145;-75
2022/10/22 03:35:10;;;;;;;3.28;0.70;;;;;10.90;93817.00;;;;7395563;19;20140;-75
2022/10/22 03:37:38;;;;;;;0.70;0.70;;;;;10.90;93822.00;;;;7397167;19;20671;-74
2022/10/22 03:40:07;;;;;;;1.85;0.70;;;;;10.90;93831.00;;;;7397616;19;20192;-74
2022/10/22 03:42:44;;;;;;;3.70;0.70;;;;;11.00;93830.00;;;;7392498;19;20135;-75
2022/10/22 03:45:11;;;;;;;1.45;0.70;;;;;10.90;93834.00;;;;7394546;19;20212;-74
2022/10/22 03:47:39;;;;;;;0.30;0.30;;;;;10.90;93827.00;;;;7395001;19;20977;-75
2022/10/22 03:50:13;;;;;;;2.83;0.73;;;;;10.80;93837.00;;;;7391974;19;20472;-76
2022/10/22 03:52:53;;;;;;;0.95;0.50;;;;;10.70;93842.00;;;;7390744;19;20176;-75
2022/10/22 03:55:27;;;;;;;2.08;0.85;;;;;10.60;93843.00;;;;7395196;19;20133;-74
2022/10/22 03:57:55;;;;;;;1.02;0.80;;;;;10.60;93837.00;;;;7393794;19;20157;-75
2022/10/22 04:00:22;;;;;;;3.40;0.85;;;;;10.60;93837.00;;;;7390585;19;20172;-77
2022/10/22 04:02:56;;;;;;;0.95;0.65;;;;;10.40;93837.00;;;;7393652;19;20680;-76
2022/10/22 04:05:24;;;;;;;5.47;0.90;;;;;10.40;93832.00;;;;7395234;19;20129;-75
2022/10/22 04:07:52;;;;;;;2.35;0.60;;;;;10.50;93833.00;;;;7392733;19;20168;-76
2022/10/22 04:10:26;;;;;;;1.95;0.70;;;;;10.60;93835.00;;;;7393902;19;20128;-78
2022/10/22 04:12:53;;;;;;;4.18;0.63;;;;;10.50;93838.00;;;;7392457;19;20161;-77
2022/10/22 04:15:21;;;;;;;3.20;0.65;;;;;10.50;93840.00;;;;7393844;19;20148;-78
2022/10/22 04:17:54;;;;;;;1.02;0.30;;;;;10.40;93840.00;;;;7397328;19;20133;-78
2022/10/22 04:20:22;;;;;;;1.83;0.70;;;;;10.40;93839.00;;;;7388044;19;20175;-79
2022/10/22 04:22:51;;;;;;;1.90;0.43;;;;;10.50;93844.00;;;;7391903;19;20177;-78
2022/10/22 04:25:26;;;;;;;3.85;0.60;;;;;10.60;93839.00;;;;7390449;19;20618;-77
2022/10/22 04:27:54;;;;;;;0.30;0.30;;;;;10.80;93846.00;;;;7393612;19;20586;-79
2022/10/22 04:30:21;;;;;;;0.80;0.40;;;;;10.90;93842.00;;;;7389774;19;20664;-74
2022/10/22 04:32:55;;;;;;;0.45;0.45;;;;;11.00;93842.00;;;;7392030;19;20137;-79
2022/10/22 04:35:22;;;;;;;2.17;0.47;;;;;11.10;93841.00;;;;7393383;19;20124;-78
2022/10/22 04:37:54;;;;;;;2.58;0.40;;;;;11.20;93843.00;;;;7393207;19;20196;-76
2022/10/22 04:40:28;;;;;;;0.38;0.30;;;;;11.10;93841.00;;;;7390823;19;20132;-77
2022/10/22 04:42:56;;;;;;;0.17;0.17;;;;;11.20;93836.00;;;;7392038;19;20200;-78
2022/10/22 04:45:23;;;;;;;0.68;0.30;;;;;11.20;93832.00;;;;7394814;19;20184;-77
2022/10/22 04:47:58;;;;;;;2.47;0.20;;;;;11.30;93839.00;;;;7394716;19;20132;-77
2022/10/22 04:50:25;;;;;;;0.85;0.20;;;;;11.20;93844.00;;;;7388502;19;20133;-78
2022/10/22 04:52:53;;;;;;;1.95;0.20;;;;;11.30;93851.00;;;;7389361;19;20183;-77
2022/10/22 04:55:28;;;;;;;0.60;0.20;;;;;11.10;93850.00;;;;7392337;19;20730;-78
2022/10/22 04:57:55;;;;;;;0.63;0.20;;;;;11.10;93858.00;;;;7393955;19;20141;-76
2022/10/22 05:00:22;;;;;;;2.08;0.20;;;;;11.10;93851.00;;;;7388794;19;20146;-75
2022/10/22 05:02:57;;;;;;;0.70;0.32;;;;;10.90;93855.00;;;;7392757;19;20136;-78
2022/10/22 05:05:24;;;;;;;1.85;0.30;;;;;10.90;93867.00;;;;7390612;19;20155;-78
2022/10/22 05:07:53;;;;;;;0.47;0.40;;;;;10.80;93863.00;;;;7394280;19;20141;-77
2022/10/22 05:10:30;;;;;;;2.42;0.65;;;;;10.70;93874.00;;;;7391788;19;20138;-78
2022/10/22 05:12:57;;;;;;;0.10;0.10;;;;;10.60;93875.00;;;;7389355;19;20148;-80
2022/10/22 05:15:25;;;;;;;2.13;0.70;;;;;10.60;93884.00;;;;7391370;19;20609;-79
2022/10/22 05:18:00;;;;;;;1.95;0.40;;;;;10.40;93883.00;;;;7392793;19;20133;-79
2022/10/22 05:20:28;;;;;;;1.13;0.13;;;;;10.40;93893.00;;;;7391559;19;20129;-79
2022/10/22 05:22:56;;;;;;;0.30;0.30;;;;;10.40;93891.00;;;;7390525;19;20615;-79
2022/10/22 05:25:30;;;;;;;0.20;0.20;;;;;10.70;93886.00;;;;7391017;19;20151;-81
2022/10/22 05:27:57;;;;;;;0.20;0.20;;;;;10.90;93896.00;;;;7393501;19;20620;-79
2022/10/22 05:30:26;;;;;;;0.30;0.30;;;;;10.80;93894.00;;;;7391796;19;20543;-80
2022/10/22 05:33:01;;;;;;;0.50;0.40;;;;;10.80;93897.00;;;;7398325;19;20128;-79
2022/10/22 05:35:28;;;;;;;0.17;0.17;;;;;10.90;93889.00;;;;7399374;19;20145;-75
2022/10/22 05:37:56;;;;;;;0.45;0.30;;;;;10.80;93899.00;;;;7403138;19;20476;-78
2022/10/22 05:40:30;;;;;;;2.10;0.43;;;;;10.70;93894.00;;;;7397392;19;20235;-79
2022/10/22 05:42:59;;;;;;;2.45;0.40;;;;;10.60;93899.00;;;;7400323;19;20117;-76
2022/10/22 05:45:26;;;;;;;1.17;0.30;;;;;10.50;93902.00;;;;7401999;19;20133;-76
2022/10/22 05:48:00;;;;;;;0.28;0.28;;;;;10.50;93902.00;;;;7401237;19;20482;-78
2022/10/22 05:50:27;;;;;;;1.55;0.57;;;;;10.70;93904.00;;;;7396632;19;20612;-78
2022/10/22 05:52:55;;;;;;;0.47;0.30;;;;;10.60;93897.00;;;;7397771;19;20504;-77
2022/10/22 05:55:37;;;;;;;0.40;0.17;;;;;10.60;93901.00;;;;7399580;19;20159;-78
2022/10/22 05:58:06;;;;;;;2.30;0.40;;;;;10.70;93907.00;;;;7399671;19;20143;-78
2022/10/22 06:00:41;;;;;;;0.75;0.43;;;;;10.60;93911.00;;;;7395781;19;20600;-78
2022/10/22 06:03:08;;;;;;;2.20;0.40;;;;;10.50;93920.00;;;;7396278;19;20139;-79
2022/10/22 06:05:37;;;;;;;2.25;0.35;;;;;10.60;93924.00;;;;7399766;19;20148;-78
2022/10/22 06:08:13;;;;;;;5.68;0.30;;;;;10.90;93925.00;;;;7395104;19;20124;-76
2022/10/22 06:10:45;;;;;;;3.55;0.30;;;;;11.00;93924.00;;;;7398167;19;20152;-77
2022/10/22 06:13:19;;;;;;;0.40;0.20;;;;;11.20;93925.00;;;;7398301;19;20152;-77
2022/10/22 06:15:47;;;;;;;0.73;0.40;;;;;11.30;93924.00;;;;7398508;19;20124;-78
2022/10/22 06:18:15;;;;;;;0.20;0.10;;;;;11.40;93927.00;;;;7397702;19;20176;-77
2022/10/22 06:20:49;;;;;;;2.10;0.55;;;;;11.30;93928.00;;;;7397126;19;20128;-78
2022/10/22 06:23:19;;;;;;;0.25;0.25;;;;;11.20;93936.00;;;;7396705;19;20506;-77
2022/10/22 06:26:00;;;;;;;0.20;0.20;;;;;11.20;93946.00;;;;7399170;19;20128;-78
2022/10/22 06:28:35;;;;;;;1.25;0.40;;;;;11.00;93955.00;;;;7394355;19;20173;-76
2022/10/22 06:31:03;;;;;;;0.28;0.20;;;;;11.10;93956.00;;;;7395278;19;20168;-76
2022/10/22 06:33:36;;;;;;;0.30;0.30;;;;;11.20;93957.00;;;;7397859;19;20149;-77
2022/10/22 06:36:13;;;;;;;4.68;0.40;;;;;11.20;93963.00;;;;7394023;19;20151;-79
2022/10/22 06:38:42;;;;;;;0.55;0.30;;;;;11.20;93958.00;;;;7394322;19;20132;-79
2022/10/22 06:41:19;;;;;;;0.22;0.10;;;;;11.10;93967.00;;;;7390020;19;20133;-78
2022/10/22 06:44:03;;;;;;;0.20;0.20;;;;;11.30;93967.00;;;;7397117;19;20148;-77
2022/10/22 06:46:37;;;;;;;1.60;0.30;;;;;11.10;93973.00;;;;7395053;19;20128;-79
2022/10/22 06:49:13;;;;;;;0.55;0.30;;;;;11.10;93976.00;;;;7396337;19;20140;-79
2022/10/22 06:51:41;;;;;;;0.28;0.17;;;;;11.10;93986.00;;;;7397053;19;20177;-79
2022/10/22 06:54:09;;;;;;;1.23;0.38;;;;;11.20;93979.00;;;;7393319;19;20168;-78
2022/10/22 06:56:43;;;;;;;3.45;0.40;;;;;11.30;93985.00;;;;7396414;19;20132;-78
2022/10/22 06:59:11;;;;;;;0.75;0.40;;;;;11.30;93982.00;;;;7397198;19;20129;-78
2022/10/22 07:01:39;;;;;;;1.67;0.50;;;;;11.30;94000.00;;;;7397195;19;20133;-78
2022/10/22 07:04:14;;;;;;;0.77;0.40;;;;;11.40;93992.00;;;;7395303;19;20124;-78
2022/10/22 07:06:41;;;;;;;2.13;0.38;;;;;11.60;93995.00;;;;7396067;19;20155;-78
2022/10/22 07:09:09;;;;;;;0.82;0.30;;;;;11.80;94014.00;;;;7396140;19;20615;-77
2022/10/22 07:12:06;;;;;;;0.30;0.30;;;;;11.90;94017.00;;;;7395670;19;20622;-78
2022/10/22 07:14:34;;;;;;;4.45;0.35;;;;;12.00;94015.00;;;;7393352;19;20129;-76
2022/10/22 07:17:10;;;;;;;2.20;0.35;;;;;12.10;94020.00;;;;7397081;19;20140;-75
2022/10/22 07:19:38;;;;;;;3.58;0.40;;;;;12.10;94022.00;;;;7397082;19;20209;-76
2022/10/22 07:22:06;;;;;;;2.40;0.40;;;;;12.20;94024.00;;;;7397051;19;20192;-77
2022/10/22 07:24:41;;;;;;;0.43;0.43;;;;;12.20;94026.00;;;;7394637;19;20612;-77
2022/10/22 07:27:08;;;;;;;0.40;0.40;;;;;12.10;94039.00;;;;7395106;19;20651;-76
2022/10/22 07:29:38;;;;;;;1.38;0.50;;;;;12.10;94037.00;;;;7395937;19;20595;-76
2022/10/22 07:32:12;;;;;;;0.38;0.38;;;;;12.20;94030.00;;;;7394781;19;20571;-78
2022/10/22 07:34:43;;;;;;;1.88;0.40;;;;;12.60;94041.00;;;;7394081;19;20132;-76
2022/10/22 07:37:11;;;;;;;0.85;0.57;;;;;12.80;94040.00;;;;7395141;19;20152;-77
2022/10/22 07:39:45;;;;;;;1.33;0.80;;;;;12.90;94045.00;;;;7395385;19;20176;-76
2022/10/22 07:42:13;;;;;;;3.05;0.85;;;;;12.80;94043.00;;;;7393212;19;20196;-76
2022/10/22 07:44:48;;;;;;;1.40;0.60;;;;;13.00;94050.00;;;;7394250;19;20136;-76
2022/10/22 07:47:23;;;;;;;1.42;0.45;;;;;12.90;94050.00;;;;7394086;19;20145;-77
2022/10/22 07:49:50;;;;;;;0.85;0.50;;;;;13.10;94044.00;;;;7394401;19;20216;-76
2022/10/22 07:52:18;;;;;;;2.05;0.90;;;;;13.20;94047.00;;;;7392809;19;20213;-75
2022/10/22 07:54:59;;;;;;;2.00;1.33;;;;;13.20;94048.00;;;;7390776;19;20592;-77
2022/10/22 07:57:27;;;;;;;2.60;0.65;;;;;13.20;94043.00;;;;7394671;19;20567;-77
2022/10/22 08:00:03;;;;;;;0.90;0.63;;;;;13.40;94047.00;;;;7394340;19;20173;-76
2022/10/22 08:02:32;;;;;;;1.10;0.98;;;;;13.70;94046.00;;;;7391588;19;20128;-77
2022/10/22 08:05:00;;;;;;;5.47;0.73;;;;;13.70;94054.00;;;;7391545;19;20137;-76
2022/10/22 08:07:34;;;;;;;0.80;0.70;;;;;13.80;94057.00;;;;7392415;19;20129;-77
2022/10/22 08:10:02;;;;;;;0.70;0.70;;;;;13.90;94052.00;;;;7395384;19;20133;-76
2022/10/22 08:12:30;;;;;;;5.15;0.68;;;;;14.50;94054.00;;;;7393035;19;20121;-77
2022/10/22 08:15:06;;;;;;;0.93;0.90;;;;;15.30;94049.00;;;;7390466;19;20152;-76
2022/10/22 08:17:35;;;;;;;4.95;0.98;;;;;16.40;94040.00;;;;7393170;19;20152;-76
2022/10/22 08:20:04;;;;;;;0.90;0.80;;;;;17.10;94037.00;;;;7395979;19;20146;-76
2022/10/22 08:22:38;;;;;;;4.78;0.70;;;;;17.70;94036.00;;;;7391706;19;20132;-76
2022/10/22 08:25:09;;;;;;;1.45;0.80;;;;;18.20;94031.00;;;;7390425;19;20132;-75
2022/10/22 08:27:37;;;;;;;1.35;0.88;;;;;18.60;94033.00;;;;7392645;19;21001;-75
2022/10/22 08:30:12;;;;;;;0.60;0.52;;;;;19.10;94028.00;;;;7389864;19;20148;-76
2022/10/22 08:32:42;;;;;;;1.95;0.80;;;;;19.10;94032.00;;;;7392206;19;20133;-76
2022/10/22 08:35:10;;;;;;;1.55;0.90;;;;;19.60;94032.00;;;;7390062;19;20176;-77
2022/10/22 08:37:45;;;;;;;2.40;0.90;;;;;20.10;94039.00;;;;7391565;19;20140;-77
2022/10/22 08:40:39;;;;;;;4.75;1.17;;;;;20.20;94039.00;;;;7393358;19;20128;-74
2022/10/22 08:43:31;;;;;;;2.38;0.90;;;;;20.20;94033.00;;;;7394758;19;20125;-77
2022/10/22 08:46:22;;;;;;;1.95;0.70;;;;;19.90;94051.00;;;;7392719;19;20460;-75
2022/10/22 08:49:00;;;;;;;0.73;0.70;;;;;19.60;94062.00;;;;7389688;19;20136;-76
2022/10/22 08:51:39;;;;;;;1.05;0.73;;;;;18.60;94066.00;;;;7392779;19;20646;-78
2022/10/22 08:54:32;;;;;;;0.57;0.57;;;;;17.60;94077.00;;;;7386262;19;20144;-77
2022/10/22 08:57:06;;;;;;;2.25;0.60;;;;;17.30;94076.00;;;;7389206;19;20147;-77
2022/10/22 08:59:46;;;;;;;0.90;0.65;;;;;17.10;94083.00;;;;7391666;19;20156;-77
2022/10/22 09:02:42;;;;;;;2.80;0.68;;;;;16.60;94092.00;;;;7388747;19;20144;-77
2022/10/22 09:05:53;;;;;;;2.17;1.08;;;;;16.80;94087.00;;;;7392386;19;20518;-77
2022/10/22 09:08:21;;;;;;;2.05;0.70;;;;;17.20;94086.00;;;;7396370;19;20133;-75
2022/10/22 09:11:27;;;;;;;0.90;0.70;;;;;17.60;94084.00;;;;7398316;19;20615;-76
2022/10/22 09:13:56;;;;;;;0.80;0.60;;;;;17.90;94094.00;;;;7396740;19;20579;-76
2022/10/22 09:17:08;;;;;;;1.40;0.60;;;;;17.80;94087.00;;;;7397756;19;20117;-79
2022/10/22 09:20:08;;;;;;;0.80;0.52;;;;;17.80;94090.00;;;;7400596;19;20129;-78
2022/10/22 09:23:01;;;;;;;1.00;0.90;;;;;17.80;94101.00;;;;7398957;19;20133;-76
2022/10/22 09:25:35;;;;;;;4.13;0.88;;;;;17.90;94098.00;;;;7397218;19;20135;-76
2022/10/22 09:28:09;;;;;;;1.35;0.90;;;;;17.50;94111.00;;;;7395129;19;20146;-78
2022/10/22 09:30:39;;;;;;;1.92;1.10;;;;;17.60;94125.00;;;;7397323;19;20145;-77
2022/10/22 09:33:13;;;;;;;3.40;0.80;;;;;17.00;94117.00;;;;7398005;19;20145;-77
2022/10/22 09:35:51;;;;;;;3.20;0.80;;;;;17.00;94130.00;;;;7397603;19;20492;-77
2022/10/22 09:38:22;;;;;;;1.35;0.60;;;;;16.60;94125.00;;;;7395474;19;20145;-76
2022/10/22 09:40:59;;;;;;;3.10;0.77;;;;;16.70;94123.00;;;;7399286;19;20524;-80
2022/10/22 09:43:27;;;;;;;1.55;1.00;;;;;16.80;94132.00;;;;7398834;19;20511;-77
2022/10/22 09:45:59;;;;;;;1.10;0.40;;;;;16.70;94134.00;;;;7399516;19;20152;-77
2022/10/22 09:48:46;;;;;;;2.15;0.82;;;;;16.70;94131.00;;;;7396090;19;20141;-78
2022/10/22 09:51:34;;;;;;;4.25;1.13;;;;;17.30;94123.00;;;;7398831;19;20180;-79
2022/10/22 09:54:26;;;;;;;2.40;1.00;;;;;18.70;94124.00;;;;7394867;19;20168;-77
2022/10/22 09:57:20;;;;;;;3.47;1.02;;;;;19.90;94111.00;;;;7394752;19;20147;-76
2022/10/22 09:59:56;;;;;;;4.28;1.00;;;;;20.30;94114.00;;;;7397921;19;20133;-78
2022/10/22 10:02:28;;;;;;;2.30;1.00;;;;;20.50;94119.00;;;;7395669;19;20133;-76
2022/10/22 10:05:06;;;;;;;4.43;1.08;;;;;20.70;94120.00;;;;7398127;19;20638;-78
2022/10/22 10:07:35;;;;;;;5.97;1.20;;;;;21.20;94120.00;;;;7398428;19;20588;-76
2022/10/22 10:10:35;;;;;;;2.75;1.08;;;;;22.00;94126.00;;;;7397377;19;20162;-78
2022/10/22 10:13:31;;;;;;;2.50;1.08;;;;;22.20;94123.00;;;;7395651;19;20154;-75
2022/10/22 10:16:12;;;;;;;2.92;1.15;;;;;20.80;94133.00;;;;7396004;19;20606;-77
2022/10/22 10:19:08;;;;;;;4.63;1.30;;;;;20.70;94136.00;;;;7394975;19;20155;-74
2022/10/22 10:22:20;;;;;;;2.22;1.00;;;;;20.40;94151.00;;;;7394991;19;20129;-75
2022/10/22 10:25:19;;;;;;;2.70;1.17;;;;;21.50;94153.00;;;;7392649;19;20141;-76
2022/10/22 10:28:06;;;;;;;2.63;0.80;;;;;21.60;94151.00;;;;7395317;19;20137;-77
2022/10/22 10:30:43;;;;;;;2.83;1.10;;;;;20.90;94153.00;;;;7396334;19;20140;-77
2022/10/22 10:33:29;;;;;;;3.88;1.10;;;;;21.10;94155.00;;;;7395749;19;20161;-77
2022/10/22 10:36:03;;;;;;;2.95;1.00;;;;;21.00;94158.00;;;;7391081;19;20156;-77
2022/10/22 10:38:50;;;;;;;2.88;1.10;;;;;20.90;94155.00;;;;7395707;19;20148;-77
2022/10/22 10:41:47;;;;;;;3.72;1.10;;;;;21.30;94156.00;;;;7395101;19;20151;-77
2022/10/22 10:44:51;;;;;;;4.45;1.27;;;;;21.10;94160.00;;;;7391191;19;20156;-76
2022/10/22 10:47:55;;;;;;;5.57;1.50;;;;;20.80;94164.00;;;;7394209;19;20137;-78
2022/10/22 10:50:52;;;;;;;3.25;0.90;;;;;20.20;94154.00;;;;7395286;19;20160;-78
2022/10/22 10:53:42;;;;;;;5.63;1.20;;;;;20.60;94169.00;;;;7395691;19;20173;-78
2022/10/22 10:56:36;;;;;;;2.25;1.25;;;;;20.60;94166.00;;;;7389428;19;20167;-78
2022/10/22 10:59:37;;;;;;;3.60;1.00;;;;;21.50;94155.00;;;;7394456;19;20488;-80
2022/10/22 11:02:29;;;;;;;3.20;1.15;;;;;21.00;94183.00;;;;7392346;19;20180;-77
2022/10/22 11:05:17;;;;;;;2.03;1.10;;;;;20.90;94163.00;;;;7394587;19;20113;-77
2022/10/22 11:07:57;;;;;;;3.50;1.10;;;;;21.90;94149.00;;;;7392385;19;20234;-77
2022/10/22 11:10:43;;;;;;;6.70;1.15;;;;;22.20;94159.00;;;;7395066;19;20449;-77
2022/10/22 11:13:23;;;;;;;4.03;1.10;;;;;21.60;94155.00;;;;7395961;19;20153;-77
2022/10/22 11:16:09;;;;;;;3.85;1.23;;;;;22.90;94156.00;;;;7391037;19;20132;-76
2022/10/22 11:19:08;;;;;;;2.35;1.20;;;;;21.90;94158.00;;;;7389503;19;20489;-77
2022/10/22 11:21:54;;;;;;;7.22;1.05;;;;;22.50;94152.00;;;;7393515;19;20215;-78
2022/10/22 11:24:34;;;;;;;4.32;1.10;;;;;22.60;94146.00;;;;7392079;19;20154;-78
2022/10/22 11:27:32;;;;;;;3.22;1.08;;;;;21.30;94155.00;;;;7390648;19;20598;-73
2022/10/22 11:30:36;;;;;;;3.00;1.10;;;;;22.10;94152.00;;;;7395465;19;20613;-77
2022/10/22 11:33:13;;;;;;;2.70;1.00;;;;;21.80;94149.00;;;;7391731;19;20602;-78
2022/10/22 11:35:49;;;;;;;4.32;1.00;;;;;21.50;94164.00;;;;7392746;19;20152;-77
2022/10/22 11:38:21;;;;;;;3.60;1.30;;;;;21.60;94154.00;;;;7389593;19;20653;-76
2022/10/22 11:41:14;;;;;;;1.83;0.90;;;;;21.50;94152.00;;;;7392278;19;20718;-77
2022/10/22 11:44:09;;;;;;;4.45;1.27;;;;;21.60;94154.00;;;;7392136;19;20224;-75
2022/10/22 11:46:54;;;;;;;1.25;0.88;;;;;22.50;94159.00;;;;7391129;19;20725;-76
2022/10/22 11:50:04;;;;;;;0.95;0.80;;;;;22.50;94161.00;;;;7392824;19;20148;-77
2022/10/22 11:53:08;;;;;;;0.85;0.70;;;;;23.00;94146.00;;;;7390730;19;20212;-77
2022/10/22 11:56:06;;;;;;;3.33;1.42;;;;;23.00;94141.00;;;;7390835;19;20626;-76
2022/10/22 11:58:43;;;;;;;2.13;0.80;;;;;22.90;94154.00;;;;7391055;19;20162;-77
2022/10/22 12:01:22;;;;;;;2.58;1.13;;;;;23.40;94149.00;;;;7393101;19;20461;-78
2022/10/22 12:04:19;;;;;;;1.90;1.05;;;;;23.60;94147.00;;;;7392194;19;20133;-80
2022/10/22 12:07:02;;;;;;;4.35;1.13;;;;;24.00;94153.00;;;;7391745;19;20188;-78
2022/10/22 12:09:41;;;;;;;2.80;1.10;;;;;22.60;94147.00;;;;7393342;19;20706;-77
2022/10/22 12:12:20;;;;;;;2.25;1.10;;;;;23.50;94146.00;;;;7393926;19;20124;-80
2022/10/22 12:15:04;;;;;;;2.05;0.88;;;;;23.20;94141.00;;;;7392565;19;20194;-77
2022/10/22 12:17:34;;;;;;;3.00;0.80;;;;;24.20;94140.00;;;;7391423;19;20168;-81
2022/10/22 12:20:13;;;;;;;6.97;1.02;;;;;25.10;94149.00;;;;7391698;19;20163;-79
2022/10/22 12:22:42;;;;;;;3.08;1.23;;;;;24.70;94141.00;;;;7389691;19;20135;-81
2022/10/22 12:25:23;;;;;;;1.55;0.90;;;;;25.10;94142.00;;;;7391349;19;20211;-81
2022/10/22 12:27:59;;;;;;;2.78;1.00;;;;;25.90;94136.00;;;;7393140;19;20155;-80
2022/10/22 12:30:35;;;;;;;2.90;0.85;;;;;26.00;94136.00;;;;7388107;19;20175;-82
2022/10/22 12:33:06;;;;;;;1.95;0.93;;;;;26.30;94138.00;;;;7391871;19;20133;-79
2022/10/22 12:35:45;;;;;;;4.30;1.27;;;;;25.70;94133.00;;;;7376172;19;20136;-78
2022/10/22 12:38:23;;;;;;;1.83;0.98;;;;;26.20;94130.00;;;;7390487;19;20156;-81
2022/10/22 12:40:56;;;;;;;2.10;1.00;;;;;26.20;94139.00;;;;7387722;19;20584;-81
2022/10/22 12:43:33;;;;;;;5.30;1.10;;;;;26.60;94142.00;;;;7389983;19;20176;-81
2022/10/22 12:46:01;;;;;;;2.30;1.00;;;;;25.90;94142.00;;;;7389981;19;20136;-81
2022/10/22 12:48:36;;;;;;;3.35;0.98;;;;;24.50;94144.00;;;;7391733;19;20137;-81
2022/10/22 12:51:19;;;;;;;3.65;1.17;;;;;23.50;94153.00;;;;7389578;19;20219;-79
2022/10/22 12:54:07;;;;;;;3.53;1.15;;;;;23.20;94152.00;;;;7390622;19;20152;-78
2022/10/22 12:56:41;;;;;;;2.00;1.13;;;;;22.70;94149.00;;;;7389700;19;21031;-79
2022/10/22 12:59:31;;;;;;;1.75;0.80;;;;;22.20;94147.00;;;;7391247;19;20144;-77
2022/10/22 13:02:35;;;;;;;1.38;0.95;;;;;22.70;94147.00;;;;7393600;19;20584;-78
2022/10/22 13:05:15;;;;;;;1.70;0.90;;;;;22.70;94148.00;;;;7391225;19;20148;-80
2022/10/22 13:08:08;;;;;;;2.78;0.88;;;;;22.70;94143.00;;;;7393288;19;20580;-80